PWSweather.com
Personal Weather Stations
Station Observations
79674
AfterstegDE 79674

AfterstegDE 79674

Lat: 47.84344, Lon: 7.92844

Elevation: 809

Station Type: Davis Vantage 2 Aktive

Latest ConditionsUpdated 10:07:09 AM GMT+01:01 Wednesday, Jun 29, 2016
Currently Today's Max Today's Min Today's Average
Temperature 60.6°F15.9°C 60.6°F15.9°C 57.4°F14.1°C 59.6°F15.3°C
Dew Point 56.1°F13.4°C 56.5°F13.6°C 53.6°F12.0°C 55.1°F12.8°C
Winds 2.0 mph E3.2 kmh E 4.0 mph ESE6.4 kmh ESE - 2.0 mph 3.2 kmh
Wind Gusts 0.9 mph1.4 kmh 6.9 mph11.1 kmh - -
Humidity 85% 90% 78% 85%
Pressure 30.00 in1015.9 mb 30.00 in1015.9 mb 29.97 in1014.9 mb -
Hour Temp Dew Point Humidity Winds Wind Gusts Pressure Precip Precip Rate Daily Precip Total
10:07 AM 60.6°F15.9°C 56.1°F13.4°C 85% 2.0 mph E3.2 kmh E 0.9 mph1.4 kmh 30.00 in1015.9 mb - 0.00 in0.0 mm 0.00 in0.0 mm
10:02 AM 60.6°F15.9°C 56.5°F13.6°C 86% 0.9 mph E1.4 kmh E 4.9 mph7.9 kmh 30.00 in1015.9 mb - 0.00 in0.0 mm 0.00 in0.0 mm
09:57 AM 60.3°F15.7°C 55.8°F13.2°C 85% 0.9 mph E1.4 kmh E -- 30.00 in1015.9 mb - 0.00 in0.0 mm 0.00 in0.0 mm
09:52 AM 60.3°F15.7°C 55.8°F13.2°C 85% 2.0 mph SSE3.2 kmh SSE -- 30.00 in1015.9 mb - 0.00 in0.0 mm 0.00 in0.0 mm
09:47 AM 60.3°F15.7°C 55.8°F13.2°C 85% 2.9 mph SE4.7 kmh SE 2.0 mph3.2 kmh 30.00 in1015.9 mb - 0.00 in0.0 mm 0.00 in0.0 mm
09:42 AM 60.1°F15.6°C 55.6°F13.1°C 85% 2.9 mph SE4.7 kmh SE 2.9 mph4.7 kmh 30.00 in1015.9 mb - 0.00 in0.0 mm 0.00 in0.0 mm
09:37 AM 60.1°F15.6°C 55.6°F13.1°C 85% 2.0 mph SE3.2 kmh SE 2.0 mph3.2 kmh 30.00 in1015.9 mb - 0.00 in0.0 mm 0.00 in0.0 mm
09:32 AM 60.1°F15.6°C 55.6°F13.1°C 85% 2.0 mph SSE3.2 kmh SSE 0.9 mph1.4 kmh 30.00 in1015.9 mb - 0.00 in0.0 mm 0.00 in0.0 mm
09:27 AM 60.1°F15.6°C 55.6°F13.1°C 85% 2.0 mph E3.2 kmh E 4.9 mph7.9 kmh 30.00 in1015.9 mb - 0.00 in0.0 mm 0.00 in0.0 mm
09:22 AM 60.1°F15.6°C 55.6°F13.1°C 85% 2.0 mph SE3.2 kmh SE -- 30.00 in1015.9 mb - 0.00 in0.0 mm 0.00 in0.0 mm
09:17 AM 60.1°F15.6°C 55.6°F13.1°C 85% 2.9 mph ESE4.7 kmh ESE 2.0 mph3.2 kmh 30.00 in1015.9 mb - 0.00 in0.0 mm 0.00 in0.0 mm
09:12 AM 59.9°F15.5°C 55.4°F13.0°C 85% 2.0 mph ESE3.2 kmh ESE 0.9 mph1.4 kmh 30.00 in1015.9 mb - 0.00 in0.0 mm 0.00 in0.0 mm
09:07 AM 59.9°F15.5°C 55.4°F13.0°C 85% 2.0 mph E3.2 kmh E 0.9 mph1.4 kmh 30.00 in1015.9 mb - 0.00 in0.0 mm 0.00 in0.0 mm
09:02 AM 59.9°F15.5°C 55.4°F13.0°C 85% 2.9 mph SE4.7 kmh SE 0.9 mph1.4 kmh 30.00 in1015.9 mb - 0.00 in0.0 mm 0.00 in0.0 mm
08:57 AM 59.9°F15.5°C 55.4°F13.0°C 85% 2.9 mph SE4.7 kmh SE 4.0 mph6.4 kmh 30.00 in1015.9 mb - 0.00 in0.0 mm 0.00 in0.0 mm
08:52 AM 59.7°F15.4°C 55.6°F13.1°C 86% 2.0 mph ESE3.2 kmh ESE 4.0 mph6.4 kmh 30.00 in1015.9 mb - 0.00 in0.0 mm 0.00 in0.0 mm
08:47 AM 59.5°F15.3°C 55.4°F13.0°C 86% Calm Calm 2.0 mph3.2 kmh 30.00 in1015.9 mb - 0.00 in0.0 mm 0.00 in0.0 mm
08:42 AM 59.5°F15.3°C 55.4°F13.0°C 86% Calm Calm -- 30.00 in1015.9 mb - 0.00 in0.0 mm 0.00 in0.0 mm
08:37 AM 59.5°F15.3°C 55.4°F13.0°C 86% 2.0 mph SE3.2 kmh SE -- 29.99 in1015.6 mb - 0.00 in0.0 mm 0.00 in0.0 mm
08:32 AM 59.4°F15.2°C 55.4°F13.0°C 87% 4.0 mph SE6.4 kmh SE 2.0 mph3.2 kmh 29.99 in1015.6 mb - 0.00 in0.0 mm 0.00 in0.0 mm
08:27 AM 59.4°F15.2°C 55.4°F13.0°C 87% 2.9 mph SE4.7 kmh SE 2.9 mph4.7 kmh 30.00 in1015.9 mb - 0.00 in0.0 mm 0.00 in0.0 mm
08:22 AM 59.4°F15.2°C 55.4°F13.0°C 87% 2.9 mph ESE4.7 kmh ESE 4.0 mph6.4 kmh 30.00 in1015.9 mb - 0.00 in0.0 mm 0.00 in0.0 mm
08:17 AM 59.4°F15.2°C 55.4°F13.0°C 87% 2.9 mph ESE4.7 kmh ESE 4.0 mph6.4 kmh 30.00 in1015.9 mb - 0.00 in0.0 mm 0.00 in0.0 mm
08:12 AM 59.5°F15.3°C 55.6°F13.1°C 87% 2.0 mph SE3.2 kmh SE 2.0 mph3.2 kmh 30.00 in1015.9 mb - 0.00 in0.0 mm 0.00 in0.0 mm
08:07 AM 59.5°F15.3°C 55.4°F13.0°C 86% 2.9 mph SSE4.7 kmh SSE 2.0 mph3.2 kmh 30.00 in1015.9 mb - 0.00 in0.0 mm 0.00 in0.0 mm
08:02 AM 59.5°F15.3°C 55.4°F13.0°C 86% 4.0 mph SSE6.4 kmh SSE 2.0 mph3.2 kmh 30.00 in1015.9 mb - 0.00 in0.0 mm 0.00 in0.0 mm
07:57 AM 59.5°F15.3°C 55.4°F13.0°C 86% 2.9 mph S4.7 kmh S 2.9 mph4.7 kmh 30.00 in1015.9 mb - 0.00 in0.0 mm 0.00 in0.0 mm
07:52 AM 59.5°F15.3°C 55.6°F13.1°C 87% 2.0 mph SE3.2 kmh SE 4.0 mph6.4 kmh 29.99 in1015.6 mb - 0.00 in0.0 mm 0.00 in0.0 mm
07:47 AM 59.5°F15.3°C 55.6°F13.1°C 87% 2.0 mph ESE3.2 kmh ESE 0.9 mph1.4 kmh 29.99 in1015.6 mb - 0.00 in0.0 mm 0.00 in0.0 mm
07:42 AM 59.5°F15.3°C 55.6°F13.1°C 87% 2.0 mph S3.2 kmh S 2.9 mph4.7 kmh 29.99 in1015.6 mb - 0.00 in0.0 mm 0.00 in0.0 mm
07:37 AM 59.5°F15.3°C 55.6°F13.1°C 87% 2.0 mph SE3.2 kmh SE 2.0 mph3.2 kmh 29.99 in1015.6 mb - 0.00 in0.0 mm 0.00 in0.0 mm
07:32 AM 59.5°F15.3°C 55.9°F13.3°C 88% 2.0 mph SE3.2 kmh SE 2.0 mph3.2 kmh 29.99 in1015.6 mb - 0.00 in0.0 mm 0.00 in0.0 mm
07:27 AM 59.5°F15.3°C 55.9°F13.3°C 88% 2.0 mph ESE3.2 kmh ESE 2.9 mph4.7 kmh 29.99 in1015.6 mb - 0.00 in0.0 mm 0.00 in0.0 mm
07:22 AM 59.4°F15.2°C 55.8°F13.2°C 88% 2.0 mph SE3.2 kmh SE 0.9 mph1.4 kmh 29.99 in1015.6 mb - 0.00 in0.0 mm 0.00 in0.0 mm
07:17 AM 59.4°F15.2°C 55.8°F13.2°C 88% 2.0 mph ESE3.2 kmh ESE 0.9 mph1.4 kmh 29.99 in1015.6 mb - 0.00 in0.0 mm 0.00 in0.0 mm
07:12 AM 59.4°F15.2°C 55.8°F13.2°C 88% 2.0 mph E3.2 kmh E 2.9 mph4.7 kmh 29.99 in1015.6 mb - 0.00 in0.0 mm 0.00 in0.0 mm
07:07 AM 59.4°F15.2°C 55.8°F13.2°C 88% 2.9 mph ESE4.7 kmh ESE 0.9 mph1.4 kmh 29.99 in1015.6 mb - 0.00 in0.0 mm 0.00 in0.0 mm
07:02 AM 59.4°F15.2°C 55.8°F13.2°C 88% 2.9 mph SE4.7 kmh SE 4.0 mph6.4 kmh 29.99 in1015.6 mb - 0.00 in0.0 mm 0.00 in0.0 mm
06:57 AM 59.4°F15.2°C 55.8°F13.2°C 88% 2.9 mph ESE4.7 kmh ESE -- 29.99 in1015.6 mb - 0.00 in0.0 mm 0.00 in0.0 mm
06:52 AM 59.5°F15.3°C 55.6°F13.1°C 87% 2.0 mph ESE3.2 kmh ESE 4.0 mph6.4 kmh 29.99 in1015.6 mb - 0.00 in0.0 mm 0.00 in0.0 mm
06:47 AM 59.5°F15.3°C 55.6°F13.1°C 87% 2.0 mph S3.2 kmh S 4.0 mph6.4 kmh 29.99 in1015.6 mb - 0.00 in0.0 mm 0.00 in0.0 mm
06:42 AM 59.5°F15.3°C 55.6°F13.1°C 87% 2.9 mph ESE4.7 kmh ESE 2.9 mph4.7 kmh 29.99 in1015.6 mb - 0.00 in0.0 mm 0.00 in0.0 mm
06:37 AM 59.5°F15.3°C 55.6°F13.1°C 87% 2.0 mph SSE3.2 kmh SSE 2.0 mph3.2 kmh 29.99 in1015.6 mb - 0.00 in0.0 mm 0.00 in0.0 mm
06:32 AM 59.5°F15.3°C 55.6°F13.1°C 87% 2.0 mph SSE3.2 kmh SSE -- 29.99 in1015.6 mb - 0.00 in0.0 mm 0.00 in0.0 mm
06:27 AM 59.5°F15.3°C 55.6°F13.1°C 87% 2.9 mph SE4.7 kmh SE 2.0 mph3.2 kmh 29.98 in1015.2 mb - 0.00 in0.0 mm 0.00 in0.0 mm
06:22 AM 59.5°F15.3°C 55.6°F13.1°C 87% 2.9 mph ESE4.7 kmh ESE 0.9 mph1.4 kmh 29.98 in1015.2 mb - 0.00 in0.0 mm 0.00 in0.0 mm
06:17 AM 59.5°F15.3°C 55.6°F13.1°C 87% 2.0 mph SSE3.2 kmh SSE 2.0 mph3.2 kmh 29.98 in1015.2 mb - 0.00 in0.0 mm 0.00 in0.0 mm
06:12 AM 59.5°F15.3°C 55.6°F13.1°C 87% 2.0 mph SE3.2 kmh SE 4.0 mph6.4 kmh 29.98 in1015.2 mb - 0.00 in0.0 mm 0.00 in0.0 mm
06:07 AM 59.5°F15.3°C 55.6°F13.1°C 87% 2.0 mph ESE3.2 kmh ESE 2.0 mph3.2 kmh 29.98 in1015.2 mb - 0.00 in0.0 mm 0.00 in0.0 mm
06:02 AM 59.5°F15.3°C 55.4°F13.0°C 86% 2.0 mph SE3.2 kmh SE 0.9 mph1.4 kmh 29.98 in1015.2 mb - 0.00 in0.0 mm 0.00 in0.0 mm
05:57 AM 59.5°F15.3°C 55.4°F13.0°C 86% 2.9 mph E4.7 kmh E 0.9 mph1.4 kmh 29.97 in1014.9 mb - 0.00 in0.0 mm 0.00 in0.0 mm
05:52 AM 59.5°F15.3°C 55.4°F13.0°C 86% 0.9 mph SE1.4 kmh SE -- 29.98 in1015.2 mb - 0.00 in0.0 mm 0.00 in0.0 mm
05:47 AM 59.4°F15.2°C 55.2°F12.9°C 86% 2.0 mph SSE3.2 kmh SSE -- 29.97 in1014.9 mb - 0.00 in0.0 mm 0.00 in0.0 mm
05:42 AM 59.4°F15.2°C 55.2°F12.9°C 86% 2.0 mph SSE3.2 kmh SSE 2.9 mph4.7 kmh 29.98 in1015.2 mb - 0.00 in0.0 mm 0.00 in0.0 mm
05:37 AM 59.4°F15.2°C 55.2°F12.9°C 86% 0.9 mph SE1.4 kmh SE 2.0 mph3.2 kmh 29.98 in1015.2 mb - 0.00 in0.0 mm 0.00 in0.0 mm
05:32 AM 59.4°F15.2°C 55.2°F12.9°C 86% 0.9 mph E1.4 kmh E -- 29.98 in1015.2 mb - 0.00 in0.0 mm 0.00 in0.0 mm
05:27 AM 59.4°F15.2°C 55.2°F12.9°C 86% Calm Calm -- 29.98 in1015.2 mb - 0.00 in0.0 mm 0.00 in0.0 mm
05:22 AM 59.4°F15.2°C 55.2°F12.9°C 86% 0.9 mph SSW1.4 kmh SSW 0.9 mph1.4 kmh 29.98 in1015.2 mb - 0.00 in0.0 mm 0.00 in0.0 mm
05:17 AM 59.2°F15.1°C 55.0°F12.8°C 86% 2.0 mph ESE3.2 kmh ESE -- 29.98 in1015.2 mb - 0.00 in0.0 mm 0.00 in0.0 mm
05:12 AM 59.2°F15.1°C 55.0°F12.8°C 86% 2.0 mph WSW3.2 kmh WSW 0.9 mph1.4 kmh 29.98 in1015.2 mb - 0.00 in0.0 mm 0.00 in0.0 mm
05:07 AM 59.2°F15.1°C 55.0°F12.8°C 86% 2.9 mph ESE4.7 kmh ESE 0.9 mph1.4 kmh 29.97 in1014.9 mb - 0.00 in0.0 mm 0.00 in0.0 mm
05:02 AM 59.0°F15.0°C 54.9°F12.7°C 86% 4.0 mph ESE6.4 kmh ESE 0.9 mph1.4 kmh 29.98 in1015.2 mb - 0.00 in0.0 mm 0.00 in0.0 mm
04:57 AM 58.8°F14.9°C 54.7°F12.6°C 86% 2.9 mph SE4.7 kmh SE 4.0 mph6.4 kmh 29.98 in1015.2 mb - 0.00 in0.0 mm 0.00 in0.0 mm
04:52 AM 58.8°F14.9°C 54.7°F12.6°C 86% 2.0 mph ESE3.2 kmh ESE 2.9 mph4.7 kmh 29.98 in1015.2 mb - 0.00 in0.0 mm 0.00 in0.0 mm
04:42 AM 58.6°F14.8°C 54.5°F12.5°C 86% 0.9 mph SE1.4 kmh SE 2.9 mph4.7 kmh 29.98 in1015.2 mb - 0.00 in0.0 mm 0.00 in0.0 mm
04:37 AM 58.6°F14.8°C 54.1°F12.3°C 85% 0.9 mph SE1.4 kmh SE 2.0 mph3.2 kmh 29.98 in1015.2 mb - 0.00 in0.0 mm 0.00 in0.0 mm
04:32 AM 58.6°F14.8°C 54.1°F12.3°C 85% 0.9 mph W1.4 kmh W 0.9 mph1.4 kmh 29.98 in1015.2 mb - 0.00 in0.0 mm 0.00 in0.0 mm
04:27 AM 58.6°F14.8°C 54.1°F12.3°C 85% 0.9 mph SE1.4 kmh SE 2.9 mph4.7 kmh 29.97 in1014.9 mb - 0.00 in0.0 mm 0.00 in0.0 mm
04:22 AM 58.8°F14.9°C 54.3°F12.4°C 85% 0.9 mph N1.4 kmh N -- 29.98 in1015.2 mb - 0.00 in0.0 mm 0.00 in0.0 mm
04:17 AM 58.8°F14.9°C 54.0°F12.2°C 84% 2.0 mph WNW3.2 kmh WNW 2.9 mph4.7 kmh 29.98 in1015.2 mb - 0.00 in0.0 mm 0.00 in0.0 mm
04:12 AM 59.2°F15.1°C 54.3°F12.4°C 84% 0.9 mph S1.4 kmh S 2.9 mph4.7 kmh 29.97 in1014.9 mb - 0.00 in0.0 mm 0.00 in0.0 mm
04:07 AM 59.2°F15.1°C 54.0°F12.2°C 83% Calm Calm -- 29.97 in1014.9 mb - 0.00 in0.0 mm 0.00 in0.0 mm
04:02 AM 59.4°F15.2°C 54.1°F12.3°C 83% 0.9 mph E1.4 kmh E -- 29.97 in1014.9 mb - 0.00 in0.0 mm 0.00 in0.0 mm
03:57 AM 59.4°F15.2°C 54.1°F12.3°C 83% 2.0 mph E3.2 kmh E -- 29.97 in1014.9 mb - 0.00 in0.0 mm 0.00 in0.0 mm
03:52 AM 59.5°F15.3°C 54.0°F12.2°C 82% 2.0 mph SE3.2 kmh SE -- 29.97 in1014.9 mb - 0.00 in0.0 mm 0.00 in0.0 mm
03:47 AM 59.7°F15.4°C 54.0°F12.2°C 81% 2.9 mph SE4.7 kmh SE 2.9 mph4.7 kmh 29.97 in1014.9 mb - 0.00 in0.0 mm 0.00 in0.0 mm
03:42 AM 59.9°F15.5°C 54.1°F12.3°C 81% 4.0 mph ESE6.4 kmh ESE 2.9 mph4.7 kmh 29.97 in1014.9 mb - 0.00 in0.0 mm 0.00 in0.0 mm
03:37 AM 60.1°F15.6°C 54.0°F12.2°C 80% 2.9 mph SE4.7 kmh SE 2.9 mph4.7 kmh 29.97 in1014.9 mb - 0.00 in0.0 mm 0.00 in0.0 mm
03:32 AM 60.3°F15.7°C 53.8°F12.1°C 79% 0.9 mph ESE1.4 kmh ESE 4.9 mph7.9 kmh 29.97 in1014.9 mb - 0.00 in0.0 mm 0.00 in0.0 mm
03:27 AM 60.4°F15.8°C 53.6°F12.0°C 78% 0.9 mph NW1.4 kmh NW -- 29.97 in1014.9 mb - 0.00 in0.0 mm 0.00 in0.0 mm
03:22 AM 60.4°F15.8°C 53.6°F12.0°C 78% 0.9 mph NE1.4 kmh NE 2.0 mph3.2 kmh 29.98 in1015.2 mb - 0.00 in0.0 mm 0.00 in0.0 mm
03:17 AM 60.4°F15.8°C 53.6°F12.0°C 78% 2.0 mph NW3.2 kmh NW 2.0 mph3.2 kmh 29.98 in1015.2 mb - 0.00 in0.0 mm 0.00 in0.0 mm
03:12 AM 60.4°F15.8°C 53.6°F12.0°C 78% 2.0 mph NE3.2 kmh NE 0.9 mph1.4 kmh 29.98 in1015.2 mb - 0.00 in0.0 mm 0.00 in0.0 mm
03:07 AM 60.4°F15.8°C 53.6°F12.0°C 78% 2.9 mph NW4.7 kmh NW 2.0 mph3.2 kmh 29.98 in1015.2 mb - 0.00 in0.0 mm 0.00 in0.0 mm
03:02 AM 60.6°F15.9°C 53.8°F12.1°C 78% 2.9 mph NE4.7 kmh NE 2.0 mph3.2 kmh 29.98 in1015.2 mb - 0.00 in0.0 mm 0.00 in0.0 mm
02:57 AM 60.6°F15.9°C 54.1°F12.3°C 79% 2.9 mph NW4.7 kmh NW 2.0 mph3.2 kmh 29.98 in1015.2 mb - 0.00 in0.0 mm 0.00 in0.0 mm
02:52 AM 60.6°F15.9°C 54.1°F12.3°C 79% 2.9 mph E4.7 kmh E 6.0 mph9.7 kmh 29.98 in1015.2 mb - 0.00 in0.0 mm 0.00 in0.0 mm
02:47 AM 60.4°F15.8°C 54.0°F12.2°C 79% 2.9 mph NE4.7 kmh NE 4.0 mph6.4 kmh 29.98 in1015.2 mb - 0.00 in0.0 mm 0.00 in0.0 mm
02:42 AM 60.4°F15.8°C 54.3°F12.4°C 80% 2.9 mph E4.7 kmh E 0.9 mph1.4 kmh 29.98 in1015.2 mb - 0.00 in0.0 mm 0.00 in0.0 mm
02:37 AM 60.3°F15.7°C 54.3°F12.4°C 81% 2.0 mph NW3.2 kmh NW 2.0 mph3.2 kmh 29.98 in1015.2 mb - 0.00 in0.0 mm 0.00 in0.0 mm
02:32 AM 60.4°F15.8°C 54.9°F12.7°C 82% 0.9 mph E1.4 kmh E 2.9 mph4.7 kmh 29.98 in1015.2 mb - 0.00 in0.0 mm 0.00 in0.0 mm
02:27 AM 60.4°F15.8°C 54.9°F12.7°C 82% Calm Calm -- 29.97 in1014.9 mb - 0.00 in0.0 mm 0.00 in0.0 mm
02:22 AM 60.4°F15.8°C 54.9°F12.7°C 82% 0.9 mph SE1.4 kmh SE 0.9 mph1.4 kmh 29.97 in1014.9 mb - 0.00 in0.0 mm 0.00 in0.0 mm
02:17 AM 60.4°F15.8°C 55.2°F12.9°C 83% 2.0 mph ESE3.2 kmh ESE -- 29.97 in1014.9 mb - 0.00 in0.0 mm 0.00 in0.0 mm
02:12 AM 60.3°F15.7°C 55.0°F12.8°C 83% 2.9 mph SE4.7 kmh SE 0.9 mph1.4 kmh 29.98 in1015.2 mb - 0.00 in0.0 mm 0.00 in0.0 mm
02:07 AM 60.3°F15.7°C 55.0°F12.8°C 83% 2.9 mph SE4.7 kmh SE 4.0 mph6.4 kmh 29.97 in1014.9 mb - 0.00 in0.0 mm 0.00 in0.0 mm
01:57 AM 60.3°F15.7°C 55.4°F13.0°C 84% 2.9 mph ESE4.7 kmh ESE 4.0 mph6.4 kmh 29.97 in1014.9 mb - 0.00 in0.0 mm 0.00 in0.0 mm
01:52 AM 60.1°F15.6°C 55.6°F13.1°C 85% 2.9 mph S4.7 kmh S 2.9 mph4.7 kmh 29.97 in1014.9 mb - 0.00 in0.0 mm 0.00 in0.0 mm
01:47 AM 60.1°F15.6°C 55.6°F13.1°C 85% 2.0 mph S3.2 kmh S 0.9 mph1.4 kmh 29.98 in1015.2 mb - 0.00 in0.0 mm 0.00 in0.0 mm
01:42 AM 59.9°F15.5°C 55.4°F13.0°C 85% 0.9 mph E1.4 kmh E 4.9 mph7.9 kmh 29.98 in1015.2 mb - 0.00 in0.0 mm 0.00 in0.0 mm
01:37 AM 60.1°F15.6°C 55.6°F13.1°C 85% 2.0 mph ESE3.2 kmh ESE -- 29.98 in1015.2 mb - 0.00 in0.0 mm 0.00 in0.0 mm
01:27 AM 59.9°F15.5°C 55.8°F13.2°C 86% 0.9 mph SSE1.4 kmh SSE 0.9 mph1.4 kmh 29.98 in1015.2 mb - 0.00 in0.0 mm 0.00 in0.0 mm
01:22 AM 59.9°F15.5°C 55.8°F13.2°C 86% 2.0 mph S3.2 kmh S -- 29.98 in1015.2 mb - 0.00 in0.0 mm 0.00 in0.0 mm
01:17 AM 59.9°F15.5°C 55.8°F13.2°C 86% 2.0 mph ESE3.2 kmh ESE 2.0 mph3.2 kmh 29.98 in1015.2 mb - 0.00 in0.0 mm 0.00 in0.0 mm
01:12 AM 59.9°F15.5°C 55.8°F13.2°C 86% 2.0 mph ESE3.2 kmh ESE 2.0 mph3.2 kmh 29.98 in1015.2 mb - 0.00 in0.0 mm 0.00 in0.0 mm
01:07 AM 59.9°F15.5°C 55.9°F13.3°C 87% 2.0 mph ESE3.2 kmh ESE 2.9 mph4.7 kmh 29.98 in1015.2 mb - 0.00 in0.0 mm 0.00 in0.0 mm
01:02 AM 59.7°F15.4°C 55.8°F13.2°C 87% 2.9 mph S4.7 kmh S 0.9 mph1.4 kmh 29.98 in1015.2 mb - 0.00 in0.0 mm 0.00 in0.0 mm
12:57 AM 59.5°F15.3°C 55.9°F13.3°C 88% 2.9 mph ESE4.7 kmh ESE 0.9 mph1.4 kmh 29.98 in1015.2 mb - 0.00 in0.0 mm 0.00 in0.0 mm
12:52 AM 59.2°F15.1°C 55.6°F13.1°C 88% 2.0 mph ESE3.2 kmh ESE 4.9 mph7.9 kmh 29.99 in1015.6 mb - 0.00 in0.0 mm 0.00 in0.0 mm
12:47 AM 59.2°F15.1°C 55.9°F13.3°C 89% 2.0 mph E3.2 kmh E 4.9 mph7.9 kmh 29.99 in1015.6 mb - 0.00 in0.0 mm 0.00 in0.0 mm
12:42 AM 58.8°F14.9°C 55.6°F13.1°C 89% 2.0 mph ESE3.2 kmh ESE 4.0 mph6.4 kmh 29.99 in1015.6 mb - 0.00 in0.0 mm 0.00 in0.0 mm
12:37 AM 58.5°F14.7°C 55.6°F13.1°C 90% 2.9 mph E4.7 kmh E 0.9 mph1.4 kmh 29.99 in1015.6 mb - 0.00 in0.0 mm 0.00 in0.0 mm
12:32 AM 57.7°F14.3°C 54.9°F12.7°C 90% 2.0 mph N3.2 kmh N 6.9 mph11.1 kmh 29.99 in1015.6 mb - 0.00 in0.0 mm 0.00 in0.0 mm
12:27 AM 57.6°F14.2°C 54.7°F12.6°C 90% 0.9 mph NW1.4 kmh NW 0.9 mph1.4 kmh 29.99 in1015.6 mb - 0.00 in0.0 mm 0.00 in0.0 mm
12:22 AM 57.6°F14.2°C 54.7°F12.6°C 90% 0.9 mph NW1.4 kmh NW 0.9 mph1.4 kmh 29.98 in1015.2 mb - 0.00 in0.0 mm 0.00 in0.0 mm
12:17 AM 57.6°F14.2°C 54.7°F12.6°C 90% 0.9 mph ESE1.4 kmh ESE 0.9 mph1.4 kmh 29.98 in1015.2 mb - 0.00 in0.0 mm 0.00 in0.0 mm
12:12 AM 57.4°F14.1°C 54.5°F12.5°C 90% Calm Calm 0.9 mph1.4 kmh 29.98 in1015.2 mb - 0.00 in0.0 mm 0.00 in0.0 mm
12:07 AM 57.4°F14.1°C 54.1°F12.3°C 89% 0.9 mph NW1.4 kmh NW -- 29.98 in1015.2 mb - 0.00 in0.0 mm 0.00 in0.0 mm
12:02 AM 57.6°F14.2°C 54.3°F12.4°C 89% 0.9 mph NW1.4 kmh NW -- 29.98 in1015.2 mb - 0.00 in0.0 mm 0.00 in0.0 mm